createdAt,value
2023-03-02T12:17:44.314Z,55.49
2023-03-02T12:22:11.507Z,54.01
2023-03-02T12:25:03.842Z,53.62
2023-03-02T12:27:51.829Z,53.51
2023-03-02T12:30:37.426Z,53.15
2023-03-02T12:33:23.234Z,53.09
2023-03-02T12:36:26.046Z,52.70
2023-03-02T12:39:20.871Z,53.34
2023-03-02T12:42:25.599Z,53.29
2023-03-02T12:45:50.070Z,53.39
2023-03-02T12:48:48.944Z,54.16
2023-03-02T12:51:51.861Z,53.78
2023-03-02T12:54:37.869Z,54.11
2023-03-02T12:57:23.496Z,54.42
2023-03-02T13:00:15.708Z,54.13
2023-03-02T13:03:09.871Z,54.40
2023-03-02T13:06:12.757Z,53.84
2023-03-02T13:09:00.088Z,53.88
2023-03-02T13:11:47.012Z,52.87
2023-03-02T13:14:32.646Z,52.67
2023-03-02T13:17:29.503Z,52.08
2023-03-02T13:20:15.458Z,51.94
2023-03-02T13:23:01.579Z,52.15
2023-03-02T13:25:52.444Z,51.05
2023-03-02T13:28:39.972Z,51.67
2023-03-02T13:31:25.910Z,52.00
2023-03-02T13:34:33.318Z,50.38
2023-03-02T13:37:28.992Z,51.04
2023-03-02T13:40:26.862Z,50.85
2023-03-02T13:43:33.969Z,50.57
2023-03-02T13:46:20.153Z,50.35
2023-03-02T13:49:11.459Z,50.23
2023-03-02T13:52:27.756Z,48.38
2023-03-02T13:55:18.401Z,49.05
2023-03-02T13:58:10.192Z,48.59
2023-03-02T14:00:56.117Z,49.03
2023-03-02T14:03:42.441Z,49.02
2023-03-02T14:06:28.306Z,47.77
2023-03-02T14:09:15.063Z,47.08
2023-03-02T14:12:01.030Z,46.60
2023-03-02T14:14:46.864Z,46.88
2023-03-02T14:17:32.659Z,47.69
2023-03-02T14:20:20.164Z,48.20
2023-03-02T14:23:07.898Z,48.01
2023-03-02T14:25:55.056Z,47.65
2023-03-02T14:28:42.273Z,47.49
2023-03-02T14:31:28.277Z,46.85
2023-03-02T14:34:16.334Z,46.60
2023-03-02T14:37:08.495Z,45.96
2023-03-02T14:39:55.637Z,45.88
2023-03-02T14:42:41.917Z,45.97
2023-03-02T14:45:29.826Z,46.04
2023-03-02T14:48:16.640Z,46.01
2023-03-02T14:51:05.360Z,45.95
2023-03-02T14:53:53.206Z,46.31
2023-03-02T14:56:39.254Z,46.63
2023-03-02T14:59:24.968Z,46.74
2023-03-02T15:02:24.444Z,46.74
2023-03-02T15:05:11.464Z,47.09
2023-03-02T15:07:58.790Z,47.62
2023-03-02T15:10:46.874Z,47.70
2023-03-02T15:13:32.897Z,48.19
2023-03-02T15:16:19.069Z,48.43
2023-03-02T15:19:04.869Z,48.57
2023-03-02T15:21:52.880Z,49.06
2023-03-02T15:24:38.770Z,48.99
2023-03-02T15:27:25.151Z,48.99
2023-03-02T15:30:12.541Z,49.17
2023-03-02T15:32:59.643Z,48.97
2023-03-02T15:35:45.642Z,48.98
2023-03-02T15:38:31.506Z,48.98
2023-03-02T15:41:17.750Z,49.47
2023-03-02T15:44:03.677Z,49.59
2023-03-02T15:46:57.949Z,49.83
2023-03-02T15:49:43.746Z,49.77
2023-03-02T15:52:29.749Z,50.11
2023-03-02T15:55:15.831Z,50.20
2023-03-02T15:58:02.048Z,50.25
2023-03-02T16:00:49.309Z,50.62
2023-03-02T16:03:35.294Z,50.95
2023-03-02T16:06:21.982Z,50.81
2023-03-02T16:09:07.990Z,51.15
2023-03-02T16:11:53.612Z,50.91
2023-03-02T16:14:39.474Z,50.93
2023-03-02T16:17:25.471Z,51.27
2023-03-02T16:20:11.878Z,51.19
2023-03-02T16:22:59.522Z,51.38
2023-03-02T16:25:47.526Z,51.53
2023-03-02T16:28:34.708Z,51.36
2023-03-02T16:31:21.501Z,51.49
2023-03-02T16:34:09.073Z,51.94
2023-03-02T16:36:54.972Z,51.60
2023-03-02T16:39:40.768Z,51.90
2023-03-02T16:42:30.396Z,52.19
2023-03-02T16:45:16.334Z,52.08
2023-03-02T16:48:05.259Z,51.95
2023-03-02T16:50:58.261Z,52.14
2023-03-02T16:53:46.403Z,52.18
2023-03-02T16:56:32.535Z,52.37
2023-03-02T16:59:18.515Z,52.40
2023-03-02T17:02:05.308Z,52.37
2023-03-02T17:04:51.068Z,52.12
2023-03-02T17:07:36.946Z,52.73
2023-03-02T17:10:23.032Z,52.67
2023-03-02T17:13:09.664Z,52.56
2023-03-02T17:15:55.772Z,52.59
2023-03-02T17:18:46.803Z,52.70
2023-03-02T17:21:33.654Z,52.82
2023-03-02T17:24:19.516Z,52.53
2023-03-02T17:27:13.216Z,53.14
2023-03-02T17:30:06.291Z,53.01
2023-03-02T17:32:55.528Z,53.14
2023-03-02T17:35:42.601Z,52.98
2023-03-02T17:38:28.609Z,52.93
2023-03-02T17:41:15.001Z,53.15
2023-03-02T17:44:02.549Z,53.26
2023-03-02T17:46:50.453Z,53.49
2023-03-02T17:49:40.616Z,53.28
2023-03-02T17:52:27.742Z,54.04
2023-03-02T17:55:13.949Z,53.79
2023-03-02T17:58:01.873Z,53.95
2023-03-02T18:00:47.626Z,53.74
2023-03-02T18:03:33.857Z,53.87
2023-03-02T18:06:20.831Z,53.51
2023-03-02T18:09:08.856Z,54.05
2023-03-02T18:11:54.828Z,54.09
2023-03-02T18:14:40.780Z,54.41
2023-03-02T18:17:26.437Z,54.25
2023-03-02T18:20:12.581Z,54.21
2023-03-02T18:22:59.155Z,54.37
2023-03-02T18:25:45.509Z,54.12
2023-03-02T18:28:31.813Z,54.43
2023-03-02T18:31:18.373Z,54.03
2023-03-02T18:34:04.648Z,53.88
2023-03-02T18:36:50.694Z,54.20
2023-03-02T18:39:40.715Z,54.07
2023-03-02T18:42:27.136Z,54.52
2023-03-02T18:45:22.503Z,54.71
2023-03-02T18:48:09.156Z,54.42
2023-03-02T18:50:55.459Z,54.15
2023-03-02T18:53:43.126Z,54.51
2023-03-02T18:56:29.226Z,54.42
2023-03-02T18:59:17.741Z,54.46
2023-03-02T19:02:32.094Z,54.75
2023-03-02T19:05:21.420Z,54.53
2023-03-02T19:08:08.808Z,54.32
2023-03-02T19:10:55.496Z,54.50
2023-03-02T19:13:41.575Z,54.43
2023-03-02T19:16:27.742Z,54.47
2023-03-02T19:19:14.133Z,54.60
2023-03-02T19:22:00.370Z,54.54
2023-03-02T19:24:46.824Z,54.84
2023-03-02T19:27:32.980Z,54.25
2023-03-02T19:30:26.530Z,55.08
2023-03-02T19:33:13.519Z,54.71
2023-03-02T19:36:04.403Z,54.62
2023-03-02T19:38:50.492Z,54.81
2023-03-02T19:41:36.151Z,54.46
2023-03-02T19:44:21.969Z,54.58
2023-03-02T19:47:08.022Z,54.79
2023-03-02T19:49:53.897Z,54.95
2023-03-02T19:52:43.174Z,54.81
2023-03-02T19:55:29.407Z,54.80
2023-03-02T19:58:17.504Z,55.33
2023-03-02T20:01:04.685Z,55.25
2023-03-02T20:03:52.764Z,55.29
2023-03-02T20:06:38.970Z,54.98
2023-03-02T20:09:25.152Z,55.34
2023-03-02T20:12:13.701Z,54.76
2023-03-02T20:15:00.132Z,54.87
2023-03-02T20:17:48.437Z,55.52
2023-03-02T20:20:34.760Z,54.78
2023-03-02T20:23:21.230Z,55.24
2023-03-02T20:26:07.518Z,55.01
2023-03-02T20:28:55.600Z,55.48
2023-03-02T20:31:42.333Z,55.82
2023-03-02T20:34:28.979Z,55.74
2023-03-02T20:37:15.001Z,56.06
2023-03-02T20:40:01.940Z,56.07
2023-03-02T20:42:47.864Z,55.85
2023-03-02T20:45:34.518Z,55.88
2023-03-02T20:48:22.333Z,55.88
2023-03-02T20:51:08.585Z,56.41
2023-03-02T20:53:55.114Z,55.81
2023-03-02T20:56:41.315Z,55.94
2023-03-02T20:59:27.764Z,56.00
2023-03-02T21:02:16.125Z,56.00
2023-03-02T21:05:02.218Z,56.42
2023-03-02T21:07:48.333Z,55.80
2023-03-02T21:10:37.120Z,55.94
2023-03-02T21:13:23.606Z,56.23
2023-03-02T21:16:13.455Z,56.18
2023-03-02T21:19:00.874Z,56.17
2023-03-02T21:21:47.486Z,56.48
2023-03-02T21:24:33.424Z,56.61
2023-03-02T21:27:20.403Z,56.67
2023-03-02T21:30:09.335Z,56.46
2023-03-02T21:32:56.204Z,56.72
2023-03-02T21:35:42.640Z,56.26
2023-03-02T21:38:29.763Z,56.50
2023-03-02T21:41:16.223Z,56.17
2023-03-02T21:44:05.485Z,56.25
2023-03-02T21:46:51.591Z,56.73
2023-03-02T21:49:39.761Z,56.77
2023-03-02T21:52:27.342Z,56.85
2023-03-02T21:55:15.770Z,56.98
2023-03-02T21:58:01.932Z,56.71
2023-03-02T22:00:48.894Z,56.78
2023-03-02T22:03:35.014Z,56.93
2023-03-02T22:06:24.371Z,56.70
2023-03-02T22:09:12.368Z,57.10
2023-03-02T22:11:58.447Z,56.87
2023-03-02T22:14:44.360Z,57.39
2023-03-02T22:17:30.441Z,56.91
2023-03-02T22:20:18.932Z,57.10
2023-03-02T22:23:15.398Z,57.34
2023-03-02T22:26:02.169Z,57.36
2023-03-02T22:28:48.244Z,57.28
2023-03-02T22:31:34.169Z,57.32
2023-03-02T22:34:28.819Z,57.86
2023-03-02T22:37:26.249Z,57.82
2023-03-02T22:40:33.512Z,58.14
2023-03-02T22:43:26.818Z,57.57
2023-03-02T22:46:21.890Z,58.03
2023-03-02T22:49:15.409Z,58.16
2023-03-02T22:52:06.736Z,57.77
2023-03-02T22:54:53.829Z,57.57
2023-03-02T22:57:41.349Z,58.13
2023-03-02T23:00:30.500Z,57.86
2023-03-02T23:03:20.916Z,58.47
2023-03-02T23:06:17.048Z,58.47
2023-03-02T23:09:04.775Z,57.79
2023-03-02T23:11:52.101Z,58.02
2023-03-02T23:14:55.485Z,58.58
2023-03-02T23:17:41.104Z,58.21
2023-03-02T23:20:29.902Z,58.87
2023-03-02T23:23:16.546Z,58.61
2023-03-02T23:26:02.246Z,58.16
2023-03-02T23:28:49.462Z,58.09
2023-03-02T23:31:35.527Z,58.06
2023-03-02T23:34:21.488Z,58.32
2023-03-02T23:37:07.421Z,58.80
2023-03-02T23:39:53.227Z,58.26
2023-03-02T23:42:38.868Z,57.98
2023-03-02T23:45:24.713Z,58.18
2023-03-02T23:48:10.423Z,58.82
2023-03-02T23:50:56.046Z,58.69
2023-03-02T23:53:41.835Z,58.44
2023-03-02T23:56:27.547Z,58.74
2023-03-02T23:59:13.276Z,58.79
